Time;durP1;ratioP1;P1;durP2;ratioP2;P2;SDS_P1;SDS_P2;PMS_P1;PMS_P2;Temp;Humidity;BMP_temperature;BMP_pressure;BME280_temperature;BME280_humidity;BME280_pressure;Samples;Min_cycle;Max_cycle;Signal;HPM_P1;HPM_P2
2020/12/10 00:02:09;;;;;;;57.50;34.37;;;;;;;;;;6285260;22;20404;-93
2020/12/10 00:04:35;;;;;;;60.30;35.20;;;;;;;;;;6287919;22;20453;-93
2020/12/10 00:07:01;;;;;;;66.00;33.77;;;;;;;;;;6286434;22;20470;-95
2020/12/10 00:09:27;;;;;;;55.00;33.20;;;;;;;;;;6287184;22;20437;-95
2020/12/10 00:11:53;;;;;;;50.63;31.20;;;;;;;;;;6284378;22;20492;-93
2020/12/10 00:14:19;;;;;;;54.70;31.27;;;;;;;;;;6287477;22;20421;-94
2020/12/10 00:16:46;;;;;;;63.50;31.03;;;;;;;;;;6286805;22;20419;-93
2020/12/10 00:19:12;;;;;;;60.60;31.80;;;;;;;;;;6288016;22;20954;-94
2020/12/10 00:21:39;;;;;;;51.10;27.73;;;;;;;;;;6286066;22;20408;-94
2020/12/10 00:24:05;;;;;;;48.60;25.77;;;;;;;;;;6287376;22;20479;-94
2020/12/10 00:26:31;;;;;;;32.23;18.70;;;;;;;;;;6288286;22;20405;-94
2020/12/10 00:28:57;;;;;;;40.43;19.00;;;;;;;;;;6286212;22;20409;-94
2020/12/10 00:31:23;;;;;;;28.00;11.20;;;;;;;;;;6287292;22;20412;-94
2020/12/10 00:33:49;;;;;;;18.77;11.23;;;;;;;;;;6286365;22;20408;-93
2020/12/10 00:36:15;;;;;;;17.57;9.70;;;;;;;;;;6287857;22;20419;-95
2020/12/10 00:38:42;;;;;;;28.90;16.13;;;;;;;;;;6286022;22;20429;-94
2020/12/10 00:41:08;;;;;;;64.77;44.20;;;;;;;;;;6287668;22;20408;-96
2020/12/10 00:43:34;;;;;;;68.80;44.73;;;;;;;;;;6289242;22;20401;-95
2020/12/10 00:46:02;;;;;;;63.33;41.27;;;;;;;;;;6285901;22;20403;-94
2020/12/10 00:48:28;;;;;;;53.50;37.33;;;;;;;;;;6288065;22;20439;-94
2020/12/10 00:50:54;;;;;;;51.23;38.27;;;;;;;;;;6284916;22;20404;-93
2020/12/10 00:53:20;;;;;;;53.97;37.13;;;;;;;;;;6285792;22;20444;-93
2020/12/10 00:55:47;;;;;;;46.17;24.90;;;;;;;;;;6285739;22;20421;-93
2020/12/10 00:58:13;;;;;;;17.17;7.70;;;;;;;;;;6287387;22;20405;-90
2020/12/10 01:00:39;;;;;;;19.50;7.27;;;;;;;;;;6286349;22;20474;-89
2020/12/10 01:03:05;;;;;;;26.30;18.20;;;;;;;;;;6286438;22;20415;-96
2020/12/10 01:05:31;;;;;;;41.63;28.40;;;;;;;;;;6288776;22;20502;-95
2020/12/10 01:07:57;;;;;;;52.53;37.93;;;;;;;;;;6285820;22;20475;-94
2020/12/10 01:10:23;;;;;;;49.63;36.80;;;;;;;;;;6288955;22;20440;-95
2020/12/10 01:12:50;;;;;;;45.07;33.77;;;;;;;;;;6287608;22;20404;-95
2020/12/10 01:15:16;;;;;;;49.40;36.50;;;;;;;;;;6288027;22;20409;-95
2020/12/10 01:17:42;;;;;;;43.70;33.70;;;;;;;;;;6287924;22;20419;-93
2020/12/10 01:20:08;;;;;;;46.67;33.20;;;;;;;;;;6289428;22;20409;-94
2020/12/10 01:22:34;;;;;;;41.73;31.43;;;;;;;;;;6293880;22;20430;-94
2020/12/10 01:25:00;;;;;;;47.97;29.63;;;;;;;;;;6285106;22;20507;-95
2020/12/10 01:27:26;;;;;;;23.77;10.77;;;;;;;;;;6285673;22;20409;-92
2020/12/10 01:29:53;;;;;;;25.43;9.20;;;;;;;;;;6284785;22;20405;-91
2020/12/10 01:32:21;;;;;;;29.67;17.43;;;;;;;;;;6287765;22;20413;-95
2020/12/10 01:34:47;;;;;;;33.40;25.93;;;;;;;;;;6286733;22;20420;-95
2020/12/10 01:37:13;;;;;;;37.77;28.40;;;;;;;;;;6284495;22;20409;-95
2020/12/10 01:39:39;;;;;;;41.67;28.60;;;;;;;;;;6284767;22;20423;-95
2020/12/10 01:42:05;;;;;;;47.00;32.60;;;;;;;;;;6287411;22;20556;-95
2020/12/10 01:44:31;;;;;;;44.30;28.60;;;;;;;;;;6289011;22;20440;-96
2020/12/10 01:46:58;;;;;;;45.23;32.23;;;;;;;;;;6288166;22;21070;-93
2020/12/10 01:49:24;;;;;;;44.00;30.70;;;;;;;;;;6289398;22;20410;-93
2020/12/10 01:51:50;;;;;;;31.33;24.07;;;;;;;;;;6287949;22;20405;-91
2020/12/10 01:54:16;;;;;;;23.90;8.80;;;;;;;;;;6289469;22;20413;-92
2020/12/10 01:56:42;;;;;;;21.57;8.70;;;;;;;;;;6287698;22;20409;-94
2020/12/10 01:59:08;;;;;;;25.10;9.13;;;;;;;;;;6289384;22;20458;-93
2020/12/10 02:01:35;;;;;;;8.90;4.27;;;;;;;;;;6288334;22;20400;-89
2020/12/10 02:04:02;;;;;;;7.43;3.53;;;;;;;;;;6287849;22;20446;-90
2020/12/10 02:06:28;;;;;;;7.63;4.37;;;;;;;;;;6287195;22;20408;-91
2020/12/10 02:08:54;;;;;;;8.43;4.30;;;;;;;;;;6286994;22;20433;-93
2020/12/10 02:11:24;;;;;;;8.13;3.90;;;;;;;;;;6289583;22;20469;-95
2020/12/10 02:13:50;;;;;;;9.53;6.57;;;;;;;;;;6287344;22;20440;-94
2020/12/10 02:16:16;;;;;;;15.13;4.67;;;;;;;;;;6261546;22;20444;-92
2020/12/10 02:18:42;;;;;;;8.90;3.83;;;;;;;;;;6286812;22;20410;-93
2020/12/10 02:21:12;;;;;;;10.80;4.30;;;;;;;;;;6289263;22;20434;-94
2020/12/10 02:23:39;;;;;;;11.27;2.87;;;;;;;;;;6290652;22;20410;-91
2020/12/10 02:26:05;;;;;;;12.63;3.50;;;;;;;;;;6288757;22;20451;-95
2020/12/10 02:28:31;;;;;;;14.53;4.13;;;;;;;;;;6289122;22;20951;-95
2020/12/10 02:30:59;;;;;;;12.50;3.20;;;;;;;;;;6290893;22;20417;-96
2020/12/10 02:33:25;;;;;;;8.77;3.30;;;;;;;;;;6289617;22;20421;-95
2020/12/10 02:35:51;;;;;;;9.23;3.33;;;;;;;;;;6288899;22;20411;-94
2020/12/10 02:38:17;;;;;;;15.30;3.50;;;;;;;;;;6288955;22;20423;-96
2020/12/10 02:40:45;;;;;;;9.40;3.13;;;;;;;;;;6289792;22;20442;-96
2020/12/10 02:43:12;;;;;;;10.50;2.97;;;;;;;;;;6262621;22;20465;-95
2020/12/10 02:45:38;;;;;;;6.53;2.60;;;;;;;;;;6288262;22;20450;-93
2020/12/10 02:48:04;;;;;;;7.77;2.93;;;;;;;;;;6288301;22;20405;-88
2020/12/10 02:50:30;;;;;;;5.70;2.40;;;;;;;;;;6288432;22;20429;-90
2020/12/10 02:52:56;;;;;;;10.57;3.30;;;;;;;;;;6287686;22;20424;-89
2020/12/10 02:55:22;;;;;;;3.97;3.17;;;;;;;;;;6288449;22;20402;-91
2020/12/10 02:57:49;;;;;;;3.80;2.37;;;;;;;;;;6288721;22;20459;-95
2020/12/10 03:00:15;;;;;;;7.27;2.63;;;;;;;;;;6287742;22;20403;-94
2020/12/10 03:02:41;;;;;;;5.13;2.27;;;;;;;;;;6284551;22;20413;-90
2020/12/10 03:05:08;;;;;;;5.40;2.40;;;;;;;;;;6287911;22;20455;-95
2020/12/10 03:07:34;;;;;;;8.63;2.50;;;;;;;;;;6287404;22;20420;-94
2020/12/10 03:10:00;;;;;;;9.70;2.30;;;;;;;;;;6289323;22;20485;-94
2020/12/10 03:12:26;;;;;;;9.40;2.43;;;;;;;;;;6288988;22;20422;-93
2020/12/10 03:14:53;;;;;;;7.00;2.40;;;;;;;;;;6288191;22;20437;-95
2020/12/10 03:17:19;;;;;;;4.07;1.97;;;;;;;;;;6289055;22;20415;-94
2020/12/10 03:19:45;;;;;;;7.27;1.93;;;;;;;;;;6287906;22;20414;-94
2020/12/10 03:22:13;;;;;;;9.00;2.43;;;;;;;;;;6290103;22;20390;-95
2020/12/10 03:24:39;;;;;;;10.57;2.57;;;;;;;;;;6286676;22;20520;-92
2020/12/10 03:27:06;;;;;;;5.33;2.03;;;;;;;;;;6288632;22;21099;-91
2020/12/10 03:29:32;;;;;;;3.97;2.40;;;;;;;;;;6286871;22;20404;-91
2020/12/10 03:31:59;;;;;;;5.73;2.13;;;;;;;;;;6287873;22;20918;-91
2020/12/10 03:34:25;;;;;;;4.17;2.37;;;;;;;;;;6287364;22;20436;-93
2020/12/10 03:36:51;;;;;;;5.53;2.53;;;;;;;;;;6286335;22;20411;-95
2020/12/10 03:39:18;;;;;;;4.33;1.90;;;;;;;;;;6287746;22;20491;-96
2020/12/10 03:41:44;;;;;;;8.90;2.10;;;;;;;;;;6286681;22;20473;-96
2020/12/10 03:44:10;;;;;;;6.87;2.67;;;;;;;;;;6286809;22;20418;-92
2020/12/10 03:46:36;;;;;;;10.83;2.77;;;;;;;;;;6287928;22;20486;-92
2020/12/10 03:49:03;;;;;;;6.40;2.00;;;;;;;;;;6287050;22;20407;-93
2020/12/10 03:51:29;;;;;;;6.97;2.63;;;;;;;;;;6287714;22;20412;-89
2020/12/10 03:53:55;;;;;;;3.83;1.80;;;;;;;;;;6288010;22;20974;-92
2020/12/10 03:56:24;;;;;;;6.63;2.23;;;;;;;;;;6288595;22;20411;-96
2020/12/10 03:58:50;;;;;;;6.03;2.00;;;;;;;;;;6287609;22;20445;-91
2020/12/10 04:01:16;;;;;;;3.80;1.87;;;;;;;;;;6286707;22;20404;-91
2020/12/10 04:03:42;;;;;;;7.00;2.50;;;;;;;;;;6284247;22;20411;-93
2020/12/10 04:06:09;;;;;;;6.50;2.00;;;;;;;;;;6289314;22;20448;-94
2020/12/10 04:08:36;;;;;;;6.27;2.33;;;;;;;;;;6290385;22;20475;-94
2020/12/10 04:11:02;;;;;;;4.10;2.20;;;;;;;;;;6290224;22;20436;-93
2020/12/10 04:13:28;;;;;;;3.37;1.87;;;;;;;;;;6288186;22;20400;-94
2020/12/10 04:15:54;;;;;;;7.13;2.43;;;;;;;;;;6291233;22;20423;-96
2020/12/10 04:18:39;;;;;;;7.90;1.90;;;;;;;;;;6298242;22;20392;-96
2020/12/10 04:21:05;;;;;;;9.80;2.53;;;;;;;;;;6294725;22;20419;-96
2020/12/10 04:23:32;;;;;;;5.20;2.10;;;;;;;;;;6289067;22;20423;-92
2020/12/10 04:31:45;;;;;;;5.77;2.33;;;;;;;;;;6291686;22;20431;-96
2020/12/10 04:34:22;;;;;;;7.30;2.03;;;;;;;;;;6290049;22;20409;-96
2020/12/10 04:37:02;;;;;;;8.37;2.20;;;;;;;;;;6294021;22;20429;-96
2020/12/10 04:39:47;;;;;;;11.30;2.40;;;;;;;;;;6299668;22;20427;-96
2020/12/10 04:42:16;;;;;;;7.47;2.10;;;;;;;;;;6295422;22;20405;-95
2020/12/10 04:44:42;;;;;;;8.13;2.00;;;;;;;;;;6300010;22;20437;-96
2020/12/10 04:47:10;;;;;;;6.13;1.90;;;;;;;;;;6299086;22;20398;-96
2020/12/10 04:49:36;;;;;;;5.83;2.27;;;;;;;;;;6293355;22;20435;-96
2020/12/10 04:54:34;;;;;;;10.50;2.00;;;;;;;;;;6260473;22;20456;-93
2020/12/10 04:57:01;;;;;;;4.70;2.00;;;;;;;;;;6262684;23;20471;-96
2020/12/10 04:59:29;;;;;;;2.80;1.90;;;;;;;;;;6267846;23;20392;-96
2020/12/10 05:01:55;;;;;;;6.53;2.00;;;;;;;;;;6271747;22;20430;-96
2020/12/10 05:04:22;;;;;;;7.43;2.10;;;;;;;;;;6263216;23;20470;-93
2020/12/10 05:06:51;;;;;;;5.40;2.03;;;;;;;;;;6257347;23;20419;-95
2020/12/10 05:09:17;;;;;;;5.37;2.07;;;;;;;;;;6255394;23;20436;-94
2020/12/10 05:11:43;;;;;;;5.70;1.80;;;;;;;;;;6258179;23;20420;-92
2020/12/10 05:14:09;;;;;;;6.43;2.00;;;;;;;;;;6256052;23;20969;-92
2020/12/10 05:16:36;;;;;;;3.70;1.80;;;;;;;;;;6254727;23;20922;-94
2020/12/10 05:19:18;;;;;;;6.17;2.00;;;;;;;;;;6255967;23;20408;-94
2020/12/10 05:22:03;;;;;;;9.73;2.00;;;;;;;;;;6254373;22;20420;-94
2020/12/10 05:24:30;;;;;;;4.83;1.70;;;;;;;;;;6256428;23;20439;-91
2020/12/10 05:27:14;;;;;;;3.97;1.90;;;;;;;;;;6255235;23;20440;-91
2020/12/10 05:29:40;;;;;;;7.57;2.00;;;;;;;;;;6256501;23;20403;-89
2020/12/10 05:32:07;;;;;;;2.50;1.87;;;;;;;;;;6254212;23;20479;-93
2020/12/10 05:34:33;;;;;;;7.40;2.23;;;;;;;;;;6256013;23;20417;-94
2020/12/10 05:36:59;;;;;;;8.47;2.33;;;;;;;;;;6254897;23;20442;-96
2020/12/10 05:39:26;;;;;;;6.00;2.40;;;;;;;;;;6225620;23;20410;-95
2020/12/10 05:41:53;;;;;;;7.60;2.90;;;;;;;;;;6198627;23;20422;-94
2020/12/10 05:44:20;;;;;;;5.60;2.17;;;;;;;;;;6225022;23;20432;-95
2020/12/10 05:46:47;;;;;;;6.10;3.07;;;;;;;;;;6223446;23;20475;-89
2020/12/10 05:49:15;;;;;;;4.40;2.47;;;;;;;;;;6224211;23;20412;-95
2020/12/10 05:51:44;;;;;;;7.07;2.10;;;;;;;;;;6228852;23;20400;-95
2020/12/10 05:54:10;;;;;;;3.60;2.00;;;;;;;;;;6244776;23;20514;-92
2020/12/10 05:56:40;;;;;;;11.47;2.13;;;;;;;;;;6255389;23;20436;-92
2020/12/10 05:59:06;;;;;;;3.57;1.80;;;;;;;;;;6245133;23;20493;-95
2020/12/10 06:01:33;;;;;;;8.60;3.40;;;;;;;;;;6246374;23;20419;-92
2020/12/10 06:03:59;;;;;;;8.87;2.50;;;;;;;;;;6246845;23;20416;-93
2020/12/10 06:06:28;;;;;;;5.50;1.90;;;;;;;;;;6247578;23;20455;-94
2020/12/10 06:08:59;;;;;;;4.93;2.00;;;;;;;;;;6247341;23;20408;-93
2020/12/10 06:11:25;;;;;;;10.83;1.80;;;;;;;;;;6222075;23;20417;-92
2020/12/10 06:13:59;;;;;;;3.63;1.97;;;;;;;;;;6254068;23;20442;-94
2020/12/10 06:16:25;;;;;;;4.73;2.10;;;;;;;;;;6255159;23;20415;-91
2020/12/10 06:19:00;;;;;;;9.23;2.20;;;;;;;;;;6256376;23;20475;-91
2020/12/10 06:21:37;;;;;;;8.53;2.13;;;;;;;;;;6252606;23;20414;-94
2020/12/10 06:24:21;;;;;;;7.97;2.10;;;;;;;;;;6254750;23;20413;-94
2020/12/10 06:26:48;;;;;;;5.53;1.80;;;;;;;;;;6254915;23;20890;-91
2020/12/10 06:29:17;;;;;;;4.13;2.10;;;;;;;;;;6258158;23;20408;-91
2020/12/10 06:32:00;;;;;;;6.13;1.63;;;;;;;;;;6257331;23;20439;-93
2020/12/10 06:34:32;;;;;;;6.30;2.07;;;;;;;;;;6258403;23;20488;-95
2020/12/10 06:37:13;;;;;;;9.37;2.07;;;;;;;;;;6261682;23;20419;-96
2020/12/10 06:39:39;;;;;;;5.40;2.20;;;;;;;;;;6260262;23;20988;-95
2020/12/10 06:42:05;;;;;;;5.13;2.20;;;;;;;;;;6254955;23;20462;-94
2020/12/10 06:44:31;;;;;;;5.47;2.27;;;;;;;;;;6257132;23;20416;-91
2020/12/10 06:46:58;;;;;;;4.40;1.90;;;;;;;;;;6257146;23;20469;-91
2020/12/10 06:49:28;;;;;;;5.70;1.83;;;;;;;;;;6256300;23;20408;-92
2020/12/10 06:52:06;;;;;;;4.47;1.90;;;;;;;;;;6258260;23;20407;-91
2020/12/10 06:54:33;;;;;;;3.03;1.60;;;;;;;;;;6256159;23;20427;-92
2020/12/10 06:57:03;;;;;;;5.13;1.93;;;;;;;;;;6257100;23;20419;-91
2020/12/10 06:59:36;;;;;;;6.57;2.60;;;;;;;;;;6255450;23;20438;-89
2020/12/10 07:02:10;;;;;;;6.20;2.50;;;;;;;;;;6257757;23;20400;-90
2020/12/10 07:04:45;;;;;;;5.33;2.60;;;;;;;;;;6256558;23;20515;-89
2020/12/10 07:07:12;;;;;;;9.57;2.83;;;;;;;;;;6257097;23;20411;-91
2020/12/10 07:09:56;;;;;;;10.13;3.70;;;;;;;;;;6254561;23;20420;-93
2020/12/10 07:12:23;;;;;;;5.53;2.57;;;;;;;;;;6256104;23;20422;-89
2020/12/10 07:14:50;;;;;;;3.17;2.17;;;;;;;;;;6255466;23;20403;-92
2020/12/10 07:17:16;;;;;;;3.90;2.40;;;;;;;;;;6256160;23;21100;-90
2020/12/10 07:19:42;;;;;;;6.77;2.40;;;;;;;;;;6254151;23;20412;-90
2020/12/10 07:22:08;;;;;;;7.73;2.17;;;;;;;;;;6253225;23;20434;-90
2020/12/10 07:24:34;;;;;;;5.50;2.30;;;;;;;;;;6255634;23;20487;-92
2020/12/10 07:27:01;;;;;;;6.40;2.00;;;;;;;;;;6256070;23;20454;-91
2020/12/10 07:29:27;;;;;;;5.40;2.50;;;;;;;;;;6257364;23;20478;-92
2020/12/10 07:31:54;;;;;;;7.07;3.03;;;;;;;;;;6252734;23;20416;-92
2020/12/10 07:34:20;;;;;;;7.30;2.00;;;;;;;;;;6253935;23;20436;-93
2020/12/10 07:36:46;;;;;;;11.43;2.37;;;;;;;;;;6252976;23;20417;-91
2020/12/10 07:39:13;;;;;;;5.93;2.60;;;;;;;;;;6254894;23;20411;-94
2020/12/10 07:41:39;;;;;;;7.07;3.17;;;;;;;;;;6256088;23;20499;-93
2020/12/10 07:44:06;;;;;;;8.13;2.70;;;;;;;;;;6253722;23;20429;-95
2020/12/10 07:46:35;;;;;;;3.87;2.50;;;;;;;;;;6254944;23;20458;-94
2020/12/10 07:49:01;;;;;;;5.83;2.60;;;;;;;;;;6254677;23;20462;-93
2020/12/10 07:51:27;;;;;;;4.63;2.30;;;;;;;;;;6255686;23;20411;-93
2020/12/10 07:54:00;;;;;;;3.93;2.20;;;;;;;;;;6254817;23;20499;-93
2020/12/10 07:56:27;;;;;;;2.93;2.40;;;;;;;;;;6255550;23;20411;-95
2020/12/10 07:59:00;;;;;;;3.50;2.20;;;;;;;;;;6254876;23;20419;-92
2020/12/10 08:01:31;;;;;;;3.80;2.40;;;;;;;;;;6255649;23;20413;-95
2020/12/10 08:04:03;;;;;;;4.30;2.43;;;;;;;;;;6256753;23;20411;-91
2020/12/10 08:06:30;;;;;;;6.30;4.00;;;;;;;;;;6253330;23;20451;-93
2020/12/10 08:08:59;;;;;;;10.00;2.50;;;;;;;;;;6255845;23;20414;-93
2020/12/10 08:11:25;;;;;;;6.93;2.37;;;;;;;;;;6228766;23;20418;-93
2020/12/10 08:13:55;;;;;;;3.97;2.33;;;;;;;;;;6256930;23;20408;-93
2020/12/10 08:16:21;;;;;;;4.20;2.23;;;;;;;;;;6257513;23;20412;-91
2020/12/10 08:18:48;;;;;;;2.50;1.90;;;;;;;;;;6256752;23;20403;-94
2020/12/10 08:21:29;;;;;;;5.37;3.07;;;;;;;;;;6256042;23;20461;-96
2020/12/10 08:23:55;;;;;;;4.10;2.20;;;;;;;;;;6256616;23;20408;-94
2020/12/10 08:26:21;;;;;;;4.30;1.80;;;;;;;;;;6263611;23;20467;-96
2020/12/10 08:28:53;;;;;;;5.37;1.87;;;;;;;;;;6263075;23;20421;-96
2020/12/10 08:31:20;;;;;;;4.07;2.13;;;;;;;;;;6262491;23;20496;-95
2020/12/10 08:37:08;;;;;;;4.10;2.30;;;;;;;;;;6259660;22;20433;-96
2020/12/10 08:39:40;;;;;;;3.87;2.50;;;;;;;;;;6263013;23;20426;-96
2020/12/10 08:42:07;;;;;;;5.93;1.77;;;;;;;;;;6239938;23;20419;-96
2020/12/10 08:44:43;;;;;;;6.33;2.57;;;;;;;;;;6269007;22;20397;-96
2020/12/10 08:47:12;;;;;;;4.80;2.20;;;;;;;;;;6267972;23;20607;-96
2020/12/10 08:49:40;;;;;;;7.73;2.90;;;;;;;;;;6242630;23;20476;-96
2020/12/10 08:52:07;;;;;;;4.23;2.27;;;;;;;;;;6265528;23;20412;-96
2020/12/10 08:54:34;;;;;;;2.90;2.20;;;;;;;;;;6234735;23;20530;-96
2020/12/10 08:57:10;;;;;;;7.90;2.43;;;;;;;;;;6251415;22;20440;-95
2020/12/10 08:59:48;;;;;;;6.37;2.47;;;;;;;;;;6251804;23;20462;-96
2020/12/10 09:02:14;;;;;;;4.80;1.80;;;;;;;;;;6268111;22;20405;-96
2020/12/10 09:04:40;;;;;;;7.80;2.00;;;;;;;;;;6261513;22;20402;-96
2020/12/10 09:07:07;;;;;;;3.00;1.67;;;;;;;;;;6264767;22;20397;-93
2020/12/10 09:09:33;;;;;;;6.53;1.70;;;;;;;;;;6260907;22;20466;-96
2020/12/10 09:11:59;;;;;;;3.37;1.50;;;;;;;;;;6259441;22;20492;-92
2020/12/10 09:14:25;;;;;;;9.10;2.20;;;;;;;;;;6260583;22;20469;-96
2020/12/10 09:16:51;;;;;;;7.37;1.60;;;;;;;;;;6263616;22;20409;-95
2020/12/10 09:19:17;;;;;;;6.93;1.60;;;;;;;;;;6260791;22;20405;-96
2020/12/10 09:21:44;;;;;;;2.13;1.30;;;;;;;;;;6260575;22;20412;-96
2020/12/10 09:24:21;;;;;;;3.80;1.60;;;;;;;;;;6272550;22;20395;-96
2020/12/10 09:26:52;;;;;;;7.37;1.47;;;;;;;;;;6258999;22;20507;-96
2020/12/10 09:29:23;;;;;;;3.93;1.20;;;;;;;;;;6274184;22;20400;-96
2020/12/10 09:31:53;;;;;;;1.53;1.07;;;;;;;;;;6262955;23;20432;-96
2020/12/10 09:34:19;;;;;;;3.40;1.40;;;;;;;;;;6265513;23;20903;-96
2020/12/10 09:36:45;;;;;;;2.33;1.30;;;;;;;;;;6269799;22;20427;-96
2020/12/10 09:39:30;;;;;;;2.07;1.40;;;;;;;;;;6221152;22;20757;-96
2020/12/10 09:41:56;;;;;;;6.77;2.20;;;;;;;;;;6295388;22;20404;-96
2020/12/10 09:44:25;;;;;;;2.37;1.50;;;;;;;;;;6288949;22;20480;-96
2020/12/10 09:46:51;;;;;;;2.30;1.50;;;;;;;;;;6290920;22;20451;-94
2020/12/10 09:49:17;;;;;;;2.40;1.37;;;;;;;;;;6289843;22;20408;-96
2020/12/10 09:51:48;;;;;;;4.30;1.63;;;;;;;;;;6292584;22;20408;-96
2020/12/10 09:54:20;;;;;;;3.93;1.30;;;;;;;;;;6291136;22;20497;-92
2020/12/10 09:57:06;;;;;;;4.30;1.73;;;;;;;;;;6299990;22;20416;-95
2020/12/10 09:59:33;;;;;;;5.30;1.87;;;;;;;;;;6301033;22;20442;-96
2020/12/10 10:01:59;;;;;;;1.83;1.43;;;;;;;;;;6301095;22;20408;-96
2020/12/10 10:07:05;;;;;;;2.83;1.63;;;;;;;;;;6295183;22;20455;-96
2020/12/10 10:09:32;;;;;;;2.20;1.37;;;;;;;;;;6302931;22;20392;-96
2020/12/10 10:11:59;;;;;;;4.33;1.47;;;;;;;;;;6297896;22;20413;-95
2020/12/10 10:14:25;;;;;;;4.43;1.47;;;;;;;;;;6291866;22;20406;-95
2020/12/10 10:16:53;;;;;;;3.60;1.70;;;;;;;;;;6285755;22;20422;-96
2020/12/10 10:19:19;;;;;;;7.50;2.10;;;;;;;;;;6290203;22;20433;-96
2020/12/10 10:21:45;;;;;;;7.60;5.40;;;;;;;;;;6286856;22;20424;-95
2020/12/10 10:24:11;;;;;;;9.40;7.10;;;;;;;;;;6287813;22;20420;-95
2020/12/10 10:26:37;;;;;;;10.77;7.20;;;;;;;;;;6288337;22;20452;-96
2020/12/10 10:29:07;;;;;;;12.77;9.17;;;;;;;;;;6290218;22;20408;-96
2020/12/10 10:31:33;;;;;;;8.80;5.53;;;;;;;;;;6296411;22;20427;-96
2020/12/10 10:33:59;;;;;;;6.60;2.30;;;;;;;;;;6288217;22;20401;-96
2020/12/10 10:36:25;;;;;;;4.20;2.00;;;;;;;;;;6287715;22;20435;-93
2020/12/10 10:38:51;;;;;;;8.00;4.40;;;;;;;;;;6286900;22;20404;-94
2020/12/10 10:41:17;;;;;;;7.07;3.97;;;;;;;;;;6286233;22;20415;-95
2020/12/10 10:43:43;;;;;;;6.43;4.17;;;;;;;;;;6286313;22;20408;-94
2020/12/10 10:46:10;;;;;;;10.87;6.13;;;;;;;;;;6286237;22;20459;-94
2020/12/10 10:48:36;;;;;;;12.10;7.70;;;;;;;;;;6287263;22;20401;-94
2020/12/10 10:51:02;;;;;;;9.03;4.60;;;;;;;;;;6286665;22;20423;-95
2020/12/10 10:53:28;;;;;;;8.63;5.00;;;;;;;;;;6288473;22;20415;-96
2020/12/10 10:55:54;;;;;;;8.27;4.97;;;;;;;;;;6286595;22;20435;-95
2020/12/10 10:58:20;;;;;;;9.07;4.53;;;;;;;;;;6289039;22;20401;-96
2020/12/10 11:00:46;;;;;;;8.67;5.07;;;;;;;;;;6288172;22;20738;-95
2020/12/10 11:03:13;;;;;;;6.37;4.40;;;;;;;;;;6290652;22;20416;-95
2020/12/10 11:05:39;;;;;;;11.10;5.60;;;;;;;;;;6288724;22;20457;-96
2020/12/10 11:08:05;;;;;;;21.40;11.60;;;;;;;;;;6289296;22;20417;-96
2020/12/10 11:10:31;;;;;;;23.87;15.90;;;;;;;;;;6287389;22;20401;-95
2020/12/10 11:12:57;;;;;;;14.57;10.60;;;;;;;;;;6286798;22;20409;-95
2020/12/10 11:15:23;;;;;;;14.97;11.00;;;;;;;;;;6286983;22;20409;-93
2020/12/10 11:17:49;;;;;;;10.83;8.30;;;;;;;;;;6281686;22;20422;-92
2020/12/10 11:20:16;;;;;;;13.07;9.00;;;;;;;;;;6286050;22;20477;-95
2020/12/10 11:22:42;;;;;;;18.40;11.00;;;;;;;;;;6287293;22;20455;-96
2020/12/10 11:25:08;;;;;;;18.37;13.47;;;;;;;;;;6287408;22;20443;-95
2020/12/10 11:27:34;;;;;;;23.83;15.17;;;;;;;;;;6284481;22;20459;-95
2020/12/10 11:30:05;;;;;;;21.80;13.93;;;;;;;;;;6286005;22;20469;-96
2020/12/10 11:36:14;;;;;;;4.80;2.50;;;;;;;;;;6279390;22;20447;-96
2020/12/10 11:38:40;;;;;;;4.10;2.17;;;;;;;;;;6291317;22;20413;-96
2020/12/10 11:41:06;;;;;;;3.07;1.60;;;;;;;;;;6292931;22;20419;-96
2020/12/10 11:43:32;;;;;;;3.90;2.20;;;;;;;;;;6289983;22;20420;-94
2020/12/10 11:46:01;;;;;;;3.03;1.30;;;;;;;;;;6285448;22;20440;-95
2020/12/10 11:48:27;;;;;;;3.00;1.50;;;;;;;;;;6286765;22;20401;-95
2020/12/10 11:50:54;;;;;;;3.67;1.67;;;;;;;;;;6286108;22;20413;-95
2020/12/10 11:53:21;;;;;;;1.73;1.53;;;;;;;;;;6285460;22;20443;-96
2020/12/10 11:55:47;;;;;;;3.00;1.40;;;;;;;;;;6285663;22;20405;-94
2020/12/10 11:58:13;;;;;;;2.50;1.43;;;;;;;;;;6286921;22;20405;-95
2020/12/10 12:00:39;;;;;;;2.00;1.43;;;;;;;;;;6287402;22;20431;-96
2020/12/10 12:03:05;;;;;;;3.83;2.40;;;;;;;;;;6288182;22;20492;-95
2020/12/10 12:05:34;;;;;;;2.80;1.80;;;;;;;;;;6286110;22;20444;-96
2020/12/10 12:08:01;;;;;;;1.40;1.30;;;;;;;;;;6290585;22;20397;-96
2020/12/10 12:10:29;;;;;;;4.80;1.90;;;;;;;;;;6295505;22;20423;-96
2020/12/10 12:12:55;;;;;;;4.80;1.80;;;;;;;;;;6288092;22;20444;-96
2020/12/10 12:15:21;;;;;;;3.00;2.00;;;;;;;;;;6287772;22;20910;-95
2020/12/10 12:17:47;;;;;;;10.43;3.30;;;;;;;;;;6290037;22;20416;-96
2020/12/10 12:20:13;;;;;;;4.30;3.90;;;;;;;;;;6292954;22;20411;-96
2020/12/10 12:22:40;;;;;;;13.77;5.63;;;;;;;;;;6285768;22;20413;-96
2020/12/10 12:25:06;;;;;;;7.10;2.60;;;;;;;;;;6288128;22;20472;-96
2020/12/10 12:27:33;;;;;;;4.00;1.40;;;;;;;;;;6287046;22;20416;-93
2020/12/10 12:29:59;;;;;;;1.50;1.10;;;;;;;;;;6285023;22;20405;-95
2020/12/10 12:32:25;;;;;;;4.33;1.40;;;;;;;;;;6288639;22;20396;-96
2020/12/10 12:34:51;;;;;;;2.33;1.20;;;;;;;;;;6285427;22;20455;-96
2020/12/10 12:37:17;;;;;;;4.70;1.30;;;;;;;;;;6287126;22;20423;-94
2020/12/10 12:39:43;;;;;;;3.00;1.40;;;;;;;;;;6284356;22;20411;-95
2020/12/10 12:42:09;;;;;;;2.47;2.00;;;;;;;;;;6289476;22;20424;-96
2020/12/10 12:44:37;;;;;;;3.53;1.50;;;;;;;;;;6291854;22;20792;-96
2020/12/10 12:47:03;;;;;;;4.53;1.70;;;;;;;;;;6287034;22;20451;-96
2020/12/10 12:49:29;;;;;;;1.73;1.47;;;;;;;;;;6292336;22;20423;-96
2020/12/10 12:51:55;;;;;;;2.40;1.77;;;;;;;;;;6296559;22;20389;-96
2020/12/10 12:54:21;;;;;;;2.63;1.90;;;;;;;;;;6292527;22;20407;-96
2020/12/10 12:56:48;;;;;;;2.00;1.63;;;;;;;;;;6287378;22;20428;-96
2020/12/10 12:59:14;;;;;;;3.30;1.63;;;;;;;;;;6289296;22;20436;-96
2020/12/10 13:02:25;;;;;;;2.40;2.20;;;;;;;;;;6298850;22;20460;-96
2020/12/10 13:04:53;;;;;;;13.50;4.47;;;;;;;;;;6257249;22;20437;-96
2020/12/10 13:07:22;;;;;;;8.10;4.67;;;;;;;;;;6294715;22;20440;-96
2020/12/10 13:10:05;;;;;;;4.40;3.80;;;;;;;;;;6297168;22;20439;-96
2020/12/10 13:12:42;;;;;;;4.90;2.40;;;;;;;;;;6279844;22;20479;-96
2020/12/10 13:15:10;;;;;;;3.20;2.10;;;;;;;;;;6242711;23;20428;-96
2020/12/10 13:17:36;;;;;;;4.10;2.40;;;;;;;;;;6241358;23;20406;-96
2020/12/10 13:23:41;;;;;;;2.43;2.10;;;;;;;;;;6227297;23;20445;-96
2020/12/10 13:28:52;;;;;;;7.37;4.70;;;;;;;;;;6269800;23;20447;-96
2020/12/10 13:31:25;;;;;;;5.73;5.00;;;;;;;;;;6265381;23;20417;-96
2020/12/10 13:33:51;;;;;;;5.53;4.93;;;;;;;;;;6265791;23;20418;-95
2020/12/10 13:36:23;;;;;;;9.53;6.40;;;;;;;;;;6261563;23;20408;-96
2020/12/10 13:39:25;;;;;;;15.53;8.10;;;;;;;;;;6273438;23;20471;-96
2020/12/10 13:44:42;;;;;;;6.87;4.57;;;;;;;;;;6295148;22;20550;-96
2020/12/10 13:53:08;;;;;;;9.13;5.23;;;;;;;;;;6119717;23;20481;-96
2020/12/10 13:58:28;;;;;;;8.80;6.07;;;;;;;;;;6157007;23;20494;-96
2020/12/10 14:00:54;;;;;;;12.90;10.17;;;;;;;;;;6285026;22;20455;-96
2020/12/10 14:03:30;;;;;;;17.27;12.90;;;;;;;;;;6328530;22;20437;-96
2020/12/10 14:08:55;;;;;;;12.83;10.10;;;;;;;;;;6307545;22;20431;-96
2020/12/10 14:20:05;;;;;;;10.73;9.50;;;;;;;;;;6290596;22;20484;-96
2020/12/10 14:28:20;;;;;;;14.90;9.70;;;;;;;;;;6295652;22;20453;-96
2020/12/10 14:30:46;;;;;;;10.70;9.57;;;;;;;;;;6305445;22;20403;-95
2020/12/10 14:33:12;;;;;;;13.60;12.17;;;;;;;;;;6305880;22;20389;-96
2020/12/10 14:35:43;;;;;;;14.27;12.57;;;;;;;;;;6305565;22;20418;-95
2020/12/10 14:38:11;;;;;;;17.90;13.80;;;;;;;;;;6280212;22;20434;-96
2020/12/10 14:40:43;;;;;;;15.40;13.10;;;;;;;;;;6297470;22;20519;-96
2020/12/10 14:43:09;;;;;;;12.63;10.00;;;;;;;;;;6274066;22;20412;-96
2020/12/10 14:45:36;;;;;;;12.43;10.90;;;;;;;;;;6271148;22;20448;-95
2020/12/10 14:48:02;;;;;;;10.43;8.77;;;;;;;;;;6290160;22;20412;-96
2020/12/10 14:50:28;;;;;;;20.57;10.00;;;;;;;;;;6291928;22;20412;-96
2020/12/10 15:05:10;;;;;;;15.53;13.30;;;;;;;;;;6299247;22;20547;-96
2020/12/10 15:07:53;;;;;;;16.10;12.23;;;;;;;;;;6299565;22;20447;-96
2020/12/10 15:13:03;;;;;;;16.03;13.13;;;;;;;;;;6279875;22;20460;-96
2020/12/10 15:20:48;;;;;;;20.73;17.20;;;;;;;;;;6249479;22;20483;-96
2020/12/10 15:25:50;;;;;;;17.43;14.50;;;;;;;;;;6270799;22;20861;-96
2020/12/10 15:28:16;;;;;;;17.60;15.03;;;;;;;;;;6266216;23;20415;-96
2020/12/10 15:30:42;;;;;;;16.20;14.37;;;;;;;;;;6258168;23;20409;-96
2020/12/10 15:33:09;;;;;;;17.00;14.30;;;;;;;;;;6228875;23;20403;-95
2020/12/10 15:35:35;;;;;;;16.33;13.20;;;;;;;;;;6250221;23;20407;-94
2020/12/10 15:38:02;;;;;;;22.20;17.70;;;;;;;;;;6252089;23;20414;-94
2020/12/10 15:40:28;;;;;;;29.57;22.90;;;;;;;;;;6253102;23;20476;-94
2020/12/10 15:42:54;;;;;;;31.87;23.07;;;;;;;;;;6253820;23;20474;-94
2020/12/10 15:45:20;;;;;;;31.40;23.57;;;;;;;;;;6255283;23;20428;-94
2020/12/10 15:47:49;;;;;;;25.80;21.67;;;;;;;;;;6259809;23;20411;-96
2020/12/10 15:50:15;;;;;;;23.90;16.60;;;;;;;;;;6256600;23;20919;-94
2020/12/10 15:52:41;;;;;;;23.73;16.87;;;;;;;;;;6254063;23;21148;-95
2020/12/10 15:55:11;;;;;;;18.60;15.70;;;;;;;;;;6260654;23;20979;-95
2020/12/10 15:57:38;;;;;;;17.50;14.30;;;;;;;;;;6255618;23;20466;-96